createdAt,value
2018-05-13T00:02:07.280Z,14.25
2018-05-13T00:04:36.879Z,14.14
2018-05-13T00:07:05.963Z,14.17
2018-05-13T00:09:35.048Z,14.11
2018-05-13T00:12:04.095Z,14.18
2018-05-13T00:14:32.838Z,14.07
2018-05-13T00:17:02.809Z,14.10
2018-05-13T00:19:31.307Z,14.13
2018-05-13T00:22:00.271Z,14.17
2018-05-13T00:24:28.594Z,14.07
2018-05-13T00:26:57.091Z,14.08
2018-05-13T00:29:26.266Z,13.93
2018-05-13T00:31:54.580Z,14.01
2018-05-13T00:34:23.714Z,13.95
2018-05-13T00:36:52.003Z,14.01
2018-05-13T00:39:20.307Z,13.89
2018-05-13T00:41:48.655Z,14.00
2018-05-13T00:44:17.139Z,14.05
2018-05-13T00:46:45.482Z,13.94
2018-05-13T00:49:13.795Z,13.91
2018-05-13T00:51:42.160Z,13.90
2018-05-13T00:54:28.448Z,13.77
2018-05-13T00:56:56.819Z,13.86
2018-05-13T00:59:26.007Z,13.79
2018-05-13T01:01:56.623Z,13.69
2018-05-13T01:04:25.721Z,13.71
2018-05-13T01:06:54.771Z,13.78
2018-05-13T01:09:23.075Z,13.77
2018-05-13T01:11:51.351Z,13.78
2018-05-13T01:14:19.642Z,13.72
2018-05-13T01:16:47.943Z,13.81
2018-05-13T01:19:17.067Z,13.69
2018-05-13T01:21:45.359Z,13.62
2018-05-13T01:24:13.658Z,13.69
2018-05-13T01:26:42.619Z,13.76
2018-05-13T01:29:11.187Z,13.78
2018-05-13T01:31:39.476Z,13.86
2018-05-13T01:34:08.082Z,13.90
2018-05-13T01:36:37.695Z,13.88
2018-05-13T01:39:06.512Z,13.90
2018-05-13T01:41:34.858Z,13.89
2018-05-13T01:44:04.110Z,13.85
2018-05-13T01:46:33.254Z,13.88
2018-05-13T01:49:01.527Z,13.85
2018-05-13T01:51:30.522Z,13.80
2018-05-13T01:53:58.839Z,13.86
2018-05-13T01:56:27.435Z,13.91
2018-05-13T01:58:55.719Z,13.77
2018-05-13T02:01:25.078Z,13.91
2018-05-13T02:03:53.766Z,13.77
2018-05-13T02:06:22.066Z,13.76
2018-05-13T02:08:51.135Z,13.76
2018-05-13T02:11:19.463Z,13.78
2018-05-13T02:13:48.719Z,13.78
2018-05-13T02:16:17.101Z,13.81
2018-05-13T02:18:46.666Z,13.89
2018-05-13T02:21:15.738Z,13.82
2018-05-13T02:23:44.878Z,13.84
2018-05-13T02:26:13.312Z,13.73
2018-05-13T02:28:42.275Z,13.75
2018-05-13T02:31:10.584Z,13.67
2018-05-13T02:33:38.860Z,13.70
2018-05-13T02:36:07.211Z,13.59
2018-05-13T02:38:37.156Z,13.63
2018-05-13T02:41:06.955Z,13.64
2018-05-13T02:43:36.020Z,13.66
2018-05-13T02:46:04.340Z,13.58
2018-05-13T02:48:33.442Z,13.48
2018-05-13T02:51:03.324Z,13.47
2018-05-13T02:53:31.718Z,13.48
2018-05-13T02:56:00.012Z,13.46
2018-05-13T02:58:28.366Z,13.39
2018-05-13T03:00:56.683Z,13.37
2018-05-13T03:03:26.151Z,13.34
2018-05-13T03:05:54.431Z,13.50
2018-05-13T03:08:22.716Z,13.41
2018-05-13T03:10:51.925Z,13.37
2018-05-13T03:13:20.767Z,13.38
2018-05-13T03:15:49.087Z,13.43
2018-05-13T03:18:18.912Z,13.38
2018-05-13T03:20:47.230Z,13.32
2018-05-13T03:23:15.507Z,13.43
2018-05-13T03:25:43.989Z,13.37
2018-05-13T03:28:12.855Z,13.41
2018-05-13T03:30:41.910Z,13.40
2018-05-13T03:33:10.610Z,13.45
2018-05-13T03:35:40.417Z,13.43
2018-05-13T03:38:08.696Z,13.49
2018-05-13T03:40:37.240Z,13.46
2018-05-13T03:43:05.745Z,13.42
2018-05-13T03:45:34.035Z,13.42
2018-05-13T03:48:02.646Z,13.39
2018-05-13T03:50:31.398Z,13.39
2018-05-13T03:53:00.612Z,13.51
2018-05-13T03:55:28.964Z,13.48
2018-05-13T03:57:58.336Z,13.43
2018-05-13T04:00:27.385Z,13.56
2018-05-13T04:02:56.655Z,13.56
2018-05-13T04:05:25.698Z,13.57
2018-05-13T04:11:29.273Z,13.57
2018-05-13T04:14:15.498Z,13.54
2018-05-13T04:16:44.722Z,13.53
2018-05-13T04:19:13.348Z,13.60
2018-05-13T04:21:42.677Z,13.69
2018-05-13T04:24:11.082Z,13.74
2018-05-13T04:26:39.367Z,13.80
2018-05-13T04:35:07.068Z,13.89
2018-05-13T04:37:36.660Z,13.93
2018-05-13T04:40:05.517Z,13.95
2018-05-13T04:42:35.320Z,14.04
2018-05-13T04:45:04.449Z,14.07
2018-05-13T04:47:33.010Z,14.03
2018-05-13T04:50:02.788Z,14.04
2018-05-13T04:52:31.106Z,14.04
2018-05-13T04:54:59.411Z,14.15
2018-05-13T04:57:28.051Z,14.13
2018-05-13T04:59:56.997Z,14.20
2018-05-13T05:02:26.146Z,14.22
2018-05-13T05:04:55.295Z,14.18
2018-05-13T05:07:24.240Z,14.23
2018-05-13T05:09:54.111Z,14.17
2018-05-13T05:12:23.059Z,14.30
2018-05-13T05:14:52.787Z,14.28
2018-05-13T05:17:21.616Z,14.46
2018-05-13T05:19:49.911Z,14.58
2018-05-13T05:22:18.261Z,14.63
2018-05-13T05:24:47.370Z,14.69
2018-05-13T05:27:15.947Z,14.90
2018-05-13T05:29:44.274Z,14.95
2018-05-13T05:32:14.486Z,15.02
2018-05-13T05:34:43.626Z,15.06
2018-05-13T05:37:12.319Z,15.22
2018-05-13T05:39:41.002Z,15.31
2018-05-13T05:42:09.299Z,15.40
2018-05-13T05:44:37.882Z,15.35
2018-05-13T05:47:06.449Z,15.55
2018-05-13T05:49:35.480Z,15.64
2018-05-13T05:52:04.163Z,15.71
2018-05-13T05:54:32.664Z,15.68
2018-05-13T05:57:02.483Z,15.82
2018-05-13T05:59:32.411Z,15.98
2018-05-13T06:02:01.459Z,16.02
2018-05-13T06:04:29.731Z,16.07
2018-05-13T06:06:58.038Z,16.12
2018-05-13T06:09:26.446Z,16.11
2018-05-13T06:11:55.494Z,16.21
2018-05-13T06:14:23.839Z,16.28
2018-05-13T06:16:52.120Z,16.27
2018-05-13T06:19:20.411Z,16.37
2018-05-13T06:21:48.802Z,16.47
2018-05-13T06:24:17.078Z,16.59
2018-05-13T06:26:45.387Z,16.62
2018-05-13T06:29:13.830Z,16.58
2018-05-13T06:31:42.090Z,16.72
2018-05-13T06:34:11.207Z,16.67
2018-05-13T06:36:39.511Z,16.74
2018-05-13T06:39:07.918Z,16.86
2018-05-13T06:41:37.730Z,16.96
2018-05-13T06:44:06.783Z,16.97
2018-05-13T06:46:35.085Z,16.95
2018-05-13T06:49:03.427Z,17.03
2018-05-13T06:51:31.785Z,17.14
2018-05-13T06:54:00.027Z,17.27
2018-05-13T06:56:29.815Z,17.42
2018-05-13T06:58:58.795Z,17.42
2018-05-13T07:01:27.210Z,17.64
2018-05-13T07:03:55.514Z,17.68
2018-05-13T07:06:26.212Z,17.73
2018-05-13T07:08:55.035Z,17.73
2018-05-13T07:11:24.148Z,17.87
2018-05-13T07:13:53.487Z,18.01
2018-05-13T07:16:23.588Z,17.97
2018-05-13T07:18:53.178Z,17.94
2018-05-13T07:21:22.927Z,18.05
2018-05-13T07:23:51.199Z,18.17
2018-05-13T07:26:19.679Z,18.19
2018-05-13T07:28:48.744Z,18.19
2018-05-13T07:31:17.791Z,18.22
2018-05-13T07:33:46.761Z,18.35
2018-05-13T07:36:15.681Z,18.50
2018-05-13T07:38:44.850Z,18.58
2018-05-13T07:41:13.161Z,18.69
2018-05-13T07:43:42.154Z,18.84
2018-05-13T07:46:11.149Z,19.00
2018-05-13T07:48:40.335Z,18.88
2018-05-13T07:51:08.760Z,18.90
2018-05-13T07:53:38.550Z,19.15
2018-05-13T07:56:08.730Z,19.26
2018-05-13T07:58:38.410Z,19.27
2018-05-13T08:01:07.471Z,19.33
2018-05-13T08:03:35.962Z,19.47
2018-05-13T08:06:04.436Z,19.53
2018-05-13T08:08:32.699Z,19.46
2018-05-13T08:11:00.991Z,19.37
2018-05-13T08:13:29.930Z,19.55
2018-05-13T08:15:58.206Z,19.60
2018-05-13T08:18:26.483Z,19.70
2018-05-13T08:20:54.882Z,19.81
2018-05-13T08:23:23.606Z,19.88
2018-05-13T08:25:51.950Z,20.01
2018-05-13T08:28:20.975Z,20.03
2018-05-13T08:30:49.302Z,20.28
2018-05-13T08:33:19.227Z,20.40
2018-05-13T08:35:48.352Z,20.36
2018-05-13T08:38:16.740Z,20.36
2018-05-13T08:40:45.824Z,20.59
2018-05-13T08:43:15.551Z,20.60
2018-05-13T08:45:44.346Z,20.54
2018-05-13T08:48:13.646Z,20.40
2018-05-13T08:50:41.929Z,20.58
2018-05-13T08:53:10.414Z,20.50
2018-05-13T08:55:39.594Z,20.56
2018-05-13T08:58:07.975Z,20.58
2018-05-13T09:00:36.766Z,20.56
2018-05-13T09:03:05.054Z,20.67
2018-05-13T09:05:33.936Z,20.79
2018-05-13T09:08:02.544Z,20.92
2018-05-13T09:10:32.887Z,20.91
2018-05-13T09:13:02.475Z,20.97
2018-05-13T09:15:31.544Z,21.16
2018-05-13T09:18:01.010Z,21.05
2018-05-13T09:20:30.098Z,21.26
2018-05-13T09:22:59.350Z,21.28
2018-05-13T09:25:28.114Z,21.26
2018-05-13T09:27:56.648Z,21.24
2018-05-13T09:30:26.047Z,21.21
2018-05-13T09:32:54.376Z,21.21
2018-05-13T09:35:22.626Z,21.30
2018-05-13T09:37:51.679Z,21.42
2018-05-13T09:40:20.078Z,21.45
2018-05-13T09:42:49.259Z,21.46
2018-05-13T09:45:17.634Z,21.57
2018-05-13T09:47:46.007Z,21.50
2018-05-13T09:50:15.064Z,21.74
2018-05-13T09:52:45.339Z,21.85
2018-05-13T09:55:14.282Z,21.93
2018-05-13T09:57:43.376Z,21.82
2018-05-13T10:00:11.819Z,21.81
2018-05-13T10:02:40.101Z,21.69
2018-05-13T10:05:09.021Z,21.76
2018-05-13T10:07:37.323Z,21.79
2018-05-13T10:10:05.622Z,22.01
2018-05-13T10:12:33.917Z,21.96
2018-05-13T10:15:02.223Z,22.09
2018-05-13T10:17:32.013Z,22.32
2018-05-13T10:20:01.286Z,22.42
2018-05-13T10:22:29.994Z,22.23
2018-05-13T10:24:58.286Z,22.12
2018-05-13T10:27:27.023Z,22.08
2018-05-13T10:29:55.343Z,22.21
2018-05-13T10:32:23.843Z,22.23
2018-05-13T10:34:52.225Z,22.26
2018-05-13T10:37:21.177Z,22.38
2018-05-13T10:39:51.129Z,22.43
2018-05-13T10:42:19.849Z,22.43
2018-05-13T10:44:48.990Z,22.43
2018-05-13T10:47:17.283Z,22.53
2018-05-13T10:49:45.668Z,22.52
2018-05-13T10:52:14.740Z,22.67
2018-05-13T10:54:43.019Z,22.81
2018-05-13T10:57:11.883Z,22.75
2018-05-13T10:59:42.234Z,22.95
2018-05-13T11:02:10.947Z,22.81
2018-05-13T11:04:39.449Z,22.98
2018-05-13T11:07:08.001Z,22.93
2018-05-13T11:09:37.030Z,22.96
2018-05-13T11:12:06.723Z,23.17
2018-05-13T11:14:35.033Z,23.18
2018-05-13T11:17:04.243Z,23.26
2018-05-13T11:19:33.907Z,23.46
2018-05-13T11:22:03.054Z,23.59
2018-05-13T11:24:32.719Z,23.52
2018-05-13T11:27:01.763Z,23.50
2018-05-13T11:29:30.055Z,23.61
2018-05-13T11:31:58.868Z,23.70
2018-05-13T11:34:27.460Z,23.78
2018-05-13T11:36:55.752Z,23.84
2018-05-13T11:39:24.435Z,23.83
2018-05-13T11:41:52.744Z,23.98
2018-05-13T11:44:21.814Z,24.12
2018-05-13T11:46:50.086Z,23.94
2018-05-13T11:49:18.614Z,24.16
2018-05-13T11:51:47.231Z,24.21
2018-05-13T11:54:15.908Z,24.10
2018-05-13T11:56:44.420Z,24.26
2018-05-13T11:59:12.700Z,24.41
2018-05-13T12:01:41.707Z,24.58
2018-05-13T12:04:10.063Z,24.65
2018-05-13T12:06:39.356Z,24.76
2018-05-13T12:09:07.641Z,24.89
2018-05-13T12:11:36.546Z,24.88
2018-05-13T12:14:05.334Z,24.85
2018-05-13T12:16:34.794Z,24.99
2018-05-13T12:19:03.675Z,25.32
2018-05-13T12:21:32.835Z,26.08
2018-05-13T12:24:02.403Z,26.96
2018-05-13T12:26:31.411Z,28.06
2018-05-13T12:28:59.836Z,28.70
2018-05-13T12:31:28.191Z,28.91
2018-05-13T12:33:57.169Z,29.77
2018-05-13T12:36:25.971Z,30.23
2018-05-13T12:38:54.732Z,30.34
2018-05-13T12:41:23.838Z,30.17
2018-05-13T12:43:52.353Z,29.91
2018-05-13T12:46:20.647Z,29.30
2018-05-13T12:48:49.475Z,29.82
2018-05-13T12:51:18.394Z,29.92
2018-05-13T12:53:46.708Z,30.05
2018-05-13T12:56:15.843Z,30.08
2018-05-13T12:58:45.769Z,30.17
2018-05-13T13:01:14.896Z,29.84
2018-05-13T13:03:43.296Z,30.86
2018-05-13T13:06:11.512Z,29.91
2018-05-13T13:08:39.821Z,31.22
2018-05-13T13:11:08.198Z,30.97
2018-05-13T13:13:36.571Z,31.31
2018-05-13T13:16:05.036Z,30.55
2018-05-13T13:18:33.364Z,30.29
2018-05-13T13:21:02.154Z,29.03
2018-05-13T13:23:30.511Z,29.73
2018-05-13T13:25:58.886Z,30.29
2018-05-13T13:28:27.908Z,30.36
2018-05-13T13:30:56.986Z,32.44
2018-05-13T13:33:25.385Z,30.43
2018-05-13T13:35:53.850Z,28.96
2018-05-13T13:38:22.330Z,27.58
2018-05-13T13:40:50.611Z,26.31
2018-05-13T13:43:19.558Z,26.35
2018-05-13T13:45:47.858Z,27.96
2018-05-13T13:48:16.138Z,28.59
2018-05-13T13:50:44.966Z,29.30
2018-05-13T13:53:13.739Z,28.41
2018-05-13T13:55:42.038Z,27.19
2018-05-13T13:58:11.498Z,26.18
2018-05-13T14:00:39.816Z,26.01
2018-05-13T14:03:09.499Z,26.32
2018-05-13T14:05:39.605Z,28.10
2018-05-13T14:08:09.104Z,29.69
2018-05-13T14:10:37.919Z,30.38
2018-05-13T14:13:06.283Z,31.00
2018-05-13T14:15:34.667Z,30.47
2018-05-13T14:18:03.730Z,31.06
2018-05-13T14:20:34.246Z,31.71
2018-05-13T14:28:58.847Z,31.10
2018-05-13T14:31:27.149Z,31.54
2018-05-13T14:33:56.081Z,31.69
2018-05-13T14:36:25.122Z,31.86
2018-05-13T14:38:54.024Z,31.20
2018-05-13T14:41:22.330Z,31.72
2018-05-13T14:43:52.257Z,31.28
2018-05-13T14:46:21.324Z,31.27
2018-05-13T14:48:50.406Z,31.96
2018-05-13T14:51:18.897Z,31.62
2018-05-13T14:53:47.961Z,31.88
2018-05-13T14:56:16.415Z,31.25
2018-05-13T14:58:45.150Z,31.82
2018-05-13T15:01:13.470Z,31.52
2018-05-13T15:03:43.206Z,31.04
2018-05-13T15:06:11.550Z,30.42
2018-05-13T15:08:41.482Z,30.30
2018-05-13T15:11:11.083Z,30.70
2018-05-13T15:13:41.950Z,30.37
2018-05-13T15:16:11.210Z,31.10
2018-05-13T15:18:40.716Z,31.40
2018-05-13T15:21:10.583Z,31.36
2018-05-13T15:23:40.070Z,30.99
2018-05-13T15:26:09.306Z,30.64
2018-05-13T15:28:37.724Z,30.66
2018-05-13T15:31:06.798Z,30.85
2018-05-13T15:33:35.114Z,30.30
2018-05-13T15:36:03.976Z,30.89
2018-05-13T15:38:32.395Z,30.19
2018-05-13T15:41:00.842Z,30.45
2018-05-13T15:43:29.856Z,30.72
2018-05-13T15:45:58.957Z,30.10
2018-05-13T15:48:28.130Z,29.48
2018-05-13T15:50:57.124Z,29.42
2018-05-13T15:53:25.493Z,29.84
2018-05-13T15:55:53.973Z,30.55
2018-05-13T15:58:22.276Z,30.24
2018-05-13T16:00:51.544Z,30.93
2018-05-13T16:03:20.677Z,30.33
2018-05-13T16:05:49.746Z,29.46
2018-05-13T16:08:18.321Z,29.47
2018-05-13T16:10:46.653Z,29.84
2018-05-13T16:13:15.630Z,29.64
2018-05-13T16:15:44.680Z,29.90
2018-05-13T16:18:12.981Z,29.19
2018-05-13T16:20:41.540Z,29.55
2018-05-13T16:23:10.267Z,28.82
2018-05-13T16:25:38.569Z,29.97
2018-05-13T16:28:06.887Z,29.86
2018-05-13T16:30:36.201Z,29.41
2018-05-13T16:33:04.903Z,29.08
2018-05-13T16:35:33.996Z,29.46
2018-05-13T16:38:02.298Z,29.02
2018-05-13T16:40:31.401Z,29.17
2018-05-13T16:43:02.132Z,28.62
2018-05-13T16:45:31.216Z,28.27
2018-05-13T16:48:00.332Z,28.76
2018-05-13T16:50:30.845Z,28.19
2018-05-13T16:52:59.178Z,28.09
2018-05-13T16:55:27.474Z,27.87
2018-05-13T16:57:55.870Z,28.49
2018-05-13T17:00:25.024Z,28.09
2018-05-13T17:02:53.505Z,27.99
2018-05-13T17:05:21.792Z,28.64
2018-05-13T17:07:50.091Z,27.88
2018-05-13T17:10:18.598Z,27.90
2018-05-13T17:12:46.906Z,27.69
2018-05-13T17:15:15.667Z,27.58
2018-05-13T17:17:44.572Z,27.41
2018-05-13T17:20:14.413Z,27.08
2018-05-13T17:22:42.845Z,26.45
2018-05-13T17:25:11.173Z,26.68
2018-05-13T17:27:39.504Z,26.48
2018-05-13T17:30:08.181Z,26.32
2018-05-13T17:32:36.943Z,26.11
2018-05-13T17:35:05.229Z,25.71
2018-05-13T17:37:33.763Z,25.09
2018-05-13T17:40:02.859Z,24.96
2018-05-13T17:42:31.922Z,24.91
2018-05-13T17:45:00.272Z,24.44
2018-05-13T17:47:28.575Z,24.31
2018-05-13T17:49:57.505Z,24.43
2018-05-13T17:52:27.237Z,24.33
2018-05-13T17:54:55.675Z,24.33
2018-05-13T17:57:24.104Z,24.21
2018-05-13T17:59:53.059Z,23.93
2018-05-13T18:02:22.453Z,23.88
2018-05-13T18:04:51.555Z,23.60
2018-05-13T18:07:20.841Z,23.48
2018-05-13T18:09:49.145Z,23.22
2018-05-13T18:12:18.345Z,22.98
2018-05-13T18:14:47.743Z,22.94
2018-05-13T18:17:16.049Z,22.53
2018-05-13T18:19:44.337Z,22.78
2018-05-13T18:22:12.675Z,22.56
2018-05-13T18:24:41.097Z,22.33
2018-05-13T18:27:09.301Z,22.15
2018-05-13T18:29:38.028Z,22.20
2018-05-13T18:32:07.090Z,21.93
2018-05-13T18:34:36.232Z,21.82
2018-05-13T18:37:05.603Z,21.66
2018-05-13T18:39:33.975Z,21.53
2018-05-13T18:42:02.294Z,21.48
2018-05-13T18:44:31.413Z,21.20
2018-05-13T18:47:00.575Z,21.11
2018-05-13T18:49:29.664Z,21.05
2018-05-13T18:51:58.284Z,20.98
2018-05-13T18:54:26.614Z,20.95
2018-05-13T18:56:54.936Z,20.87
2018-05-13T18:59:24.050Z,20.83
2018-05-13T19:01:52.410Z,20.81
2018-05-13T19:04:21.540Z,20.61
2018-05-13T19:06:49.876Z,20.42
2018-05-13T19:09:19.426Z,20.31
2018-05-13T19:11:48.524Z,20.05
2018-05-13T19:14:17.159Z,19.94
2018-05-13T19:16:45.480Z,19.91
2018-05-13T19:19:13.885Z,19.94
2018-05-13T19:21:42.700Z,19.80
2018-05-13T19:24:11.079Z,19.45
2018-05-13T19:26:40.291Z,19.51
2018-05-13T19:29:09.369Z,19.24
2018-05-13T19:31:38.610Z,19.17
2018-05-13T19:34:07.618Z,19.07
2018-05-13T19:36:36.286Z,18.93
2018-05-13T19:39:04.818Z,18.93
2018-05-13T19:41:33.119Z,18.80
2018-05-13T19:44:01.550Z,18.87
2018-05-13T19:46:29.837Z,18.65
2018-05-13T19:48:58.769Z,18.53
2018-05-13T19:51:27.816Z,18.45
2018-05-13T19:53:56.116Z,18.26
2018-05-13T19:56:24.518Z,18.23
2018-05-13T19:58:53.681Z,18.48
2018-05-13T20:01:22.080Z,18.29
2018-05-13T20:03:50.585Z,18.25
2018-05-13T20:06:19.601Z,18.13
2018-05-13T20:08:49.633Z,18.19
2018-05-13T20:11:19.298Z,18.19
2018-05-13T20:13:47.929Z,18.05
2018-05-13T20:16:16.755Z,18.05
2018-05-13T20:18:45.089Z,18.10
2018-05-13T20:21:14.374Z,17.87
2018-05-13T20:23:42.989Z,17.83
2018-05-13T20:26:12.159Z,17.69
2018-05-13T20:28:40.493Z,17.67
2018-05-13T20:31:08.782Z,17.87
2018-05-13T20:33:37.243Z,17.92
2018-05-13T20:36:05.677Z,17.78
2018-05-13T20:38:34.249Z,17.79
2018-05-13T20:41:02.614Z,17.77
2018-05-13T20:43:31.314Z,17.67
2018-05-13T20:45:59.643Z,17.53
2018-05-13T20:48:27.954Z,17.60
2018-05-13T20:50:56.285Z,17.55
2018-05-13T20:53:25.439Z,17.53
2018-05-13T20:55:54.054Z,17.42
2018-05-13T20:58:23.112Z,17.21
2018-05-13T21:00:51.525Z,17.18
2018-05-13T21:03:21.332Z,17.11
2018-05-13T21:05:49.947Z,17.09
2018-05-13T21:08:19.038Z,17.16
2018-05-13T21:10:48.169Z,17.13
2018-05-13T21:13:16.471Z,17.03
2018-05-13T21:15:45.124Z,17.15
2018-05-13T21:18:13.483Z,17.12
2018-05-13T21:20:42.659Z,17.04
2018-05-13T21:23:11.729Z,16.95
2018-05-13T21:25:40.018Z,16.92
2018-05-13T21:28:08.386Z,16.92
2018-05-13T21:30:36.724Z,16.77
2018-05-13T21:33:05.036Z,16.73
2018-05-13T21:35:33.935Z,16.75
2018-05-13T21:38:02.244Z,16.55
2018-05-13T21:40:30.550Z,16.60
2018-05-13T21:42:59.381Z,16.56
2018-05-13T21:45:27.728Z,16.60
2018-05-13T21:47:56.325Z,16.45
2018-05-13T21:50:24.631Z,16.42
2018-05-13T21:52:53.055Z,16.36
2018-05-13T21:55:22.145Z,16.54
2018-05-13T21:57:51.709Z,16.34
2018-05-13T22:00:20.001Z,16.33
2018-05-13T22:02:48.571Z,16.34
2018-05-13T22:05:16.889Z,16.28
2018-05-13T22:07:46.028Z,16.12
2018-05-13T22:10:14.349Z,16.29
2018-05-13T22:12:42.848Z,16.14
2018-05-13T22:15:12.719Z,16.23
2018-05-13T22:17:41.099Z,16.19
2018-05-13T22:20:09.457Z,16.19
2018-05-13T22:22:37.779Z,16.09
2018-05-13T22:25:06.162Z,16.12
2018-05-13T22:27:34.491Z,16.08
2018-05-13T22:30:02.939Z,15.99
2018-05-13T22:32:32.027Z,16.03
2018-05-13T22:35:03.269Z,15.91
2018-05-13T22:37:32.091Z,15.89
2018-05-13T22:40:01.041Z,15.82
2018-05-13T22:42:29.518Z,15.80
2018-05-13T22:44:57.859Z,15.72
2018-05-13T22:47:26.632Z,15.75
2018-05-13T22:49:55.195Z,15.61
2018-05-13T22:52:25.396Z,15.69
2018-05-13T22:54:54.403Z,15.72
2018-05-13T22:57:22.761Z,15.64
2018-05-13T22:59:51.809Z,15.68
2018-05-13T23:02:20.883Z,15.54
2018-05-13T23:04:49.408Z,15.55
2018-05-13T23:07:17.727Z,15.37
2018-05-13T23:09:47.354Z,15.45
2018-05-13T23:12:17.329Z,15.29
2018-05-13T23:14:45.744Z,15.26
2018-05-13T23:17:14.161Z,15.08
2018-05-13T23:19:42.599Z,15.37
2018-05-13T23:22:18.390Z,15.30
2018-05-13T23:24:47.562Z,15.29
2018-05-13T23:27:15.975Z,15.24
2018-05-13T23:29:45.364Z,15.09
2018-05-13T23:32:14.850Z,15.06
2018-05-13T23:34:43.971Z,15.02
2018-05-13T23:37:13.030Z,14.89
2018-05-13T23:39:41.449Z,14.75
2018-05-13T23:42:10.525Z,14.75
2018-05-13T23:44:38.835Z,14.69
2018-05-13T23:47:07.147Z,14.66
2018-05-13T23:49:35.539Z,14.82
2018-05-13T23:52:03.945Z,14.74
2018-05-13T23:54:33.742Z,14.65
2018-05-13T23:57:02.058Z,14.69
2018-05-13T23:59:31.124Z,14.59
